sensor_id;sensor_type;location;lat;lon;timestamp;temperature;humidity
8896;DHT22;4484;48.928;10.066;2023-10-31T00:01:32;10.40;99.90
8896;DHT22;4484;48.928;10.066;2023-10-31T00:03:59;10.30;99.90
8896;DHT22;4484;48.928;10.066;2023-10-31T00:06:26;10.30;99.90
8896;DHT22;4484;48.928;10.066;2023-10-31T00:08:53;10.30;99.90
8896;DHT22;4484;48.928;10.066;2023-10-31T00:11:21;10.30;99.90
8896;DHT22;4484;48.928;10.066;2023-10-31T00:13:48;10.30;99.90
8896;DHT22;4484;48.928;10.066;2023-10-31T00:16:14;10.30;99.90
8896;DHT22;4484;48.928;10.066;2023-10-31T00:18:41;10.30;99.90
8896;DHT22;4484;48.928;10.066;2023-10-31T00:21:08;10.30;99.90
8896;DHT22;4484;48.928;10.066;2023-10-31T00:23:45;10.20;99.90
8896;DHT22;4484;48.928;10.066;2023-10-31T00:26:12;10.20;99.90
8896;DHT22;4484;48.928;10.066;2023-10-31T00:28:45;10.20;99.90
8896;DHT22;4484;48.928;10.066;2023-10-31T00:31:12;10.20;99.90
8896;DHT22;4484;48.928;10.066;2023-10-31T00:33:40;10.20;99.90
8896;DHT22;4484;48.928;10.066;2023-10-31T00:36:08;10.10;99.90
8896;DHT22;4484;48.928;10.066;2023-10-31T00:38:35;10.10;99.90
8896;DHT22;4484;48.928;10.066;2023-10-31T00:41:02;10.10;99.90
8896;DHT22;4484;48.928;10.066;2023-10-31T00:43:29;10.10;99.90
8896;DHT22;4484;48.928;10.066;2023-10-31T00:45:55;10.00;99.90
8896;DHT22;4484;48.928;10.066;2023-10-31T00:48:23;10.10;99.90
8896;DHT22;4484;48.928;10.066;2023-10-31T00:50:50;10.00;99.90
8896;DHT22;4484;48.928;10.066;2023-10-31T00:53:17;10.00;99.90
8896;DHT22;4484;48.928;10.066;2023-10-31T00:55:44;10.00;99.90
8896;DHT22;4484;48.928;10.066;2023-10-31T00:58:12;10.00;99.90
8896;DHT22;4484;48.928;10.066;2023-10-31T01:00:39;10.00;99.90
8896;DHT22;4484;48.928;10.066;2023-10-31T01:03:07;10.00;99.90
8896;DHT22;4484;48.928;10.066;2023-10-31T01:05:33;10.00;99.90
8896;DHT22;4484;48.928;10.066;2023-10-31T01:08:00;9.90;99.90
8896;DHT22;4484;48.928;10.066;2023-10-31T01:10:27;10.00;99.90
8896;DHT22;4484;48.928;10.066;2023-10-31T01:12:54;10.00;99.90
8896;DHT22;4484;48.928;10.066;2023-10-31T01:15:21;9.90;99.90
8896;DHT22;4484;48.928;10.066;2023-10-31T01:17:48;9.90;99.90
8896;DHT22;4484;48.928;10.066;2023-10-31T01:20:15;9.90;99.90
8896;DHT22;4484;48.928;10.066;2023-10-31T01:22:42;9.90;99.90
8896;DHT22;4484;48.928;10.066;2023-10-31T01:25:09;9.90;99.90
8896;DHT22;4484;48.928;10.066;2023-10-31T01:27:37;9.90;99.90
8896;DHT22;4484;48.928;10.066;2023-10-31T01:30:04;9.80;99.90
8896;DHT22;4484;48.928;10.066;2023-10-31T01:32:31;9.80;99.90
8896;DHT22;4484;48.928;10.066;2023-10-31T01:34:58;9.80;99.90
8896;DHT22;4484;48.928;10.066;2023-10-31T01:37:25;9.80;99.90
8896;DHT22;4484;48.928;10.066;2023-10-31T01:39:53;9.70;99.90
8896;DHT22;4484;48.928;10.066;2023-10-31T01:42:20;9.70;99.90
8896;DHT22;4484;48.928;10.066;2023-10-31T01:44:47;9.70;99.90
8896;DHT22;4484;48.928;10.066;2023-10-31T01:47:14;9.60;99.90
8896;DHT22;4484;48.928;10.066;2023-10-31T01:49:41;9.60;99.90
8896;DHT22;4484;48.928;10.066;2023-10-31T01:52:10;9.60;99.90
8896;DHT22;4484;48.928;10.066;2023-10-31T01:54:37;9.60;99.90
8896;DHT22;4484;48.928;10.066;2023-10-31T01:57:04;9.50;99.90
8896;DHT22;4484;48.928;10.066;2023-10-31T01:59:32;9.40;99.90
8896;DHT22;4484;48.928;10.066;2023-10-31T02:01:59;9.40;99.90
8896;DHT22;4484;48.928;10.066;2023-10-31T02:04:29;9.40;99.90
8896;DHT22;4484;48.928;10.066;2023-10-31T02:06:56;9.40;99.90
8896;DHT22;4484;48.928;10.066;2023-10-31T02:09:23;9.30;99.90
8896;DHT22;4484;48.928;10.066;2023-10-31T02:11:52;9.30;99.90
8896;DHT22;4484;48.928;10.066;2023-10-31T02:14:19;9.20;99.90
8896;DHT22;4484;48.928;10.066;2023-10-31T02:16:49;9.10;99.90
8896;DHT22;4484;48.928;10.066;2023-10-31T02:19:19;9.10;99.90
8896;DHT22;4484;48.928;10.066;2023-10-31T02:21:46;9.10;99.90
8896;DHT22;4484;48.928;10.066;2023-10-31T02:24:13;9.00;99.90
8896;DHT22;4484;48.928;10.066;2023-10-31T02:26:40;9.00;99.90
8896;DHT22;4484;48.928;10.066;2023-10-31T02:29:07;8.90;99.90
8896;DHT22;4484;48.928;10.066;2023-10-31T02:31:34;8.90;99.90
8896;DHT22;4484;48.928;10.066;2023-10-31T02:34:02;8.90;99.90
8896;DHT22;4484;48.928;10.066;2023-10-31T02:36:30;8.90;99.90
8896;DHT22;4484;48.928;10.066;2023-10-31T02:38:58;8.80;99.90
8896;DHT22;4484;48.928;10.066;2023-10-31T02:41:24;8.80;99.90
8896;DHT22;4484;48.928;10.066;2023-10-31T02:43:52;8.80;99.90
8896;DHT22;4484;48.928;10.066;2023-10-31T02:46:21;8.70;99.90
8896;DHT22;4484;48.928;10.066;2023-10-31T02:48:48;8.70;99.90
8896;DHT22;4484;48.928;10.066;2023-10-31T02:51:15;8.60;99.90
8896;DHT22;4484;48.928;10.066;2023-10-31T02:53:43;8.60;99.90
8896;DHT22;4484;48.928;10.066;2023-10-31T02:56:10;8.50;99.90
8896;DHT22;4484;48.928;10.066;2023-10-31T02:58:37;8.50;99.90
8896;DHT22;4484;48.928;10.066;2023-10-31T03:01:04;8.50;99.90
8896;DHT22;4484;48.928;10.066;2023-10-31T03:03:31;8.50;99.90
8896;DHT22;4484;48.928;10.066;2023-10-31T03:05:59;8.50;99.90
8896;DHT22;4484;48.928;10.066;2023-10-31T03:08:26;8.50;99.90
8896;DHT22;4484;48.928;10.066;2023-10-31T03:10:53;8.50;99.90
8896;DHT22;4484;48.928;10.066;2023-10-31T03:13:20;8.50;99.90
8896;DHT22;4484;48.928;10.066;2023-10-31T03:15:47;8.50;99.90
8896;DHT22;4484;48.928;10.066;2023-10-31T03:18:14;8.50;99.90
8896;DHT22;4484;48.928;10.066;2023-10-31T03:20:45;8.50;99.90
8896;DHT22;4484;48.928;10.066;2023-10-31T03:23:15;8.40;99.90
8896;DHT22;4484;48.928;10.066;2023-10-31T03:25:42;8.40;99.90
8896;DHT22;4484;48.928;10.066;2023-10-31T03:28:18;8.40;99.90
8896;DHT22;4484;48.928;10.066;2023-10-31T03:30:47;8.40;99.90
8896;DHT22;4484;48.928;10.066;2023-10-31T03:33:14;8.30;99.90
8896;DHT22;4484;48.928;10.066;2023-10-31T03:35:43;8.30;99.90
8896;DHT22;4484;48.928;10.066;2023-10-31T03:38:10;8.30;99.90
8896;DHT22;4484;48.928;10.066;2023-10-31T03:40:37;8.30;99.90
8896;DHT22;4484;48.928;10.066;2023-10-31T03:43:04;8.30;99.90
8896;DHT22;4484;48.928;10.066;2023-10-31T03:45:31;8.30;99.90
8896;DHT22;4484;48.928;10.066;2023-10-31T03:47:58;8.20;99.90
8896;DHT22;4484;48.928;10.066;2023-10-31T03:50:26;8.20;99.90
8896;DHT22;4484;48.928;10.066;2023-10-31T03:52:53;8.30;99.90
8896;DHT22;4484;48.928;10.066;2023-10-31T03:55:20;8.20;99.90
8896;DHT22;4484;48.928;10.066;2023-10-31T03:57:47;8.30;99.90
8896;DHT22;4484;48.928;10.066;2023-10-31T04:00:14;8.20;99.90
8896;DHT22;4484;48.928;10.066;2023-10-31T04:02:41;8.20;99.90
8896;DHT22;4484;48.928;10.066;2023-10-31T04:05:08;8.30;99.90
8896;DHT22;4484;48.928;10.066;2023-10-31T04:07:35;8.30;99.90
8896;DHT22;4484;48.928;10.066;2023-10-31T04:10:02;8.30;99.90
8896;DHT22;4484;48.928;10.066;2023-10-31T04:12:29;8.30;99.90
8896;DHT22;4484;48.928;10.066;2023-10-31T04:14:56;8.30;99.90
8896;DHT22;4484;48.928;10.066;2023-10-31T04:17:23;8.30;99.90
8896;DHT22;4484;48.928;10.066;2023-10-31T04:19:50;8.30;99.90
8896;DHT22;4484;48.928;10.066;2023-10-31T04:22:17;8.30;99.90
8896;DHT22;4484;48.928;10.066;2023-10-31T04:24:44;8.30;99.90
8896;DHT22;4484;48.928;10.066;2023-10-31T04:27:11;8.30;99.90
8896;DHT22;4484;48.928;10.066;2023-10-31T04:29:38;8.30;99.90
8896;DHT22;4484;48.928;10.066;2023-10-31T04:32:05;8.30;99.90
8896;DHT22;4484;48.928;10.066;2023-10-31T04:34:32;8.30;99.90
8896;DHT22;4484;48.928;10.066;2023-10-31T04:36:59;8.30;99.90
8896;DHT22;4484;48.928;10.066;2023-10-31T04:39:26;8.30;99.90
8896;DHT22;4484;48.928;10.066;2023-10-31T04:41:53;8.30;99.90
8896;DHT22;4484;48.928;10.066;2023-10-31T04:44:20;8.40;99.90
8896;DHT22;4484;48.928;10.066;2023-10-31T04:46:47;8.40;99.90
8896;DHT22;4484;48.928;10.066;2023-10-31T04:49:15;8.40;99.90
8896;DHT22;4484;48.928;10.066;2023-10-31T04:51:44;8.40;99.90
8896;DHT22;4484;48.928;10.066;2023-10-31T04:54:11;8.40;99.90
8896;DHT22;4484;48.928;10.066;2023-10-31T04:56:38;8.50;99.90
8896;DHT22;4484;48.928;10.066;2023-10-31T04:59:05;8.50;99.90
8896;DHT22;4484;48.928;10.066;2023-10-31T05:01:32;8.50;99.90
8896;DHT22;4484;48.928;10.066;2023-10-31T05:03:59;8.50;99.90
8896;DHT22;4484;48.928;10.066;2023-10-31T05:06:38;8.50;99.90
8896;DHT22;4484;48.928;10.066;2023-10-31T05:09:05;8.50;99.90
8896;DHT22;4484;48.928;10.066;2023-10-31T05:11:32;8.50;99.90
8896;DHT22;4484;48.928;10.066;2023-10-31T05:13:59;8.50;99.90
8896;DHT22;4484;48.928;10.066;2023-10-31T05:16:26;8.40;99.90
8896;DHT22;4484;48.928;10.066;2023-10-31T05:18:53;8.40;99.90
8896;DHT22;4484;48.928;10.066;2023-10-31T05:21:20;8.40;99.90
8896;DHT22;4484;48.928;10.066;2023-10-31T05:23:50;8.40;99.90
8896;DHT22;4484;48.928;10.066;2023-10-31T05:26:17;8.40;99.90
8896;DHT22;4484;48.928;10.066;2023-10-31T05:28:44;8.30;99.90
8896;DHT22;4484;48.928;10.066;2023-10-31T05:31:11;8.40;99.90
8896;DHT22;4484;48.928;10.066;2023-10-31T05:33:39;8.30;99.90
8896;DHT22;4484;48.928;10.066;2023-10-31T05:36:06;8.30;99.90
8896;DHT22;4484;48.928;10.066;2023-10-31T05:38:33;8.20;99.90
8896;DHT22;4484;48.928;10.066;2023-10-31T05:40:59;8.20;99.90
8896;DHT22;4484;48.928;10.066;2023-10-31T05:43:26;8.10;99.90
8896;DHT22;4484;48.928;10.066;2023-10-31T05:45:53;8.10;99.90
8896;DHT22;4484;48.928;10.066;2023-10-31T05:48:20;8.10;99.90
8896;DHT22;4484;48.928;10.066;2023-10-31T05:50:47;8.00;99.90
8896;DHT22;4484;48.928;10.066;2023-10-31T05:53:14;8.00;99.90
8896;DHT22;4484;48.928;10.066;2023-10-31T05:55:41;8.00;99.90
8896;DHT22;4484;48.928;10.066;2023-10-31T05:58:08;8.00;99.90
8896;DHT22;4484;48.928;10.066;2023-10-31T06:00:34;7.90;99.90
8896;DHT22;4484;48.928;10.066;2023-10-31T06:03:02;7.90;99.90
8896;DHT22;4484;48.928;10.066;2023-10-31T06:05:29;7.90;99.90
8896;DHT22;4484;48.928;10.066;2023-10-31T06:07:56;7.90;99.90
8896;DHT22;4484;48.928;10.066;2023-10-31T06:10:23;7.90;99.90
8896;DHT22;4484;48.928;10.066;2023-10-31T06:12:50;7.90;99.90
8896;DHT22;4484;48.928;10.066;2023-10-31T06:15:17;7.90;99.90
8896;DHT22;4484;48.928;10.066;2023-10-31T06:17:44;7.80;99.90
8896;DHT22;4484;48.928;10.066;2023-10-31T06:20:11;7.80;99.90
8896;DHT22;4484;48.928;10.066;2023-10-31T06:22:38;7.80;99.90
8896;DHT22;4484;48.928;10.066;2023-10-31T06:25:05;7.80;99.90
8896;DHT22;4484;48.928;10.066;2023-10-31T06:27:32;7.80;99.90
8896;DHT22;4484;48.928;10.066;2023-10-31T06:29:59;7.80;99.90
8896;DHT22;4484;48.928;10.066;2023-10-31T06:32:45;7.80;99.90
8896;DHT22;4484;48.928;10.066;2023-10-31T06:35:12;7.70;99.90
8896;DHT22;4484;48.928;10.066;2023-10-31T06:37:39;7.80;99.90
8896;DHT22;4484;48.928;10.066;2023-10-31T06:40:07;7.80;99.90
8896;DHT22;4484;48.928;10.066;2023-10-31T06:42:35;7.80;99.90
8896;DHT22;4484;48.928;10.066;2023-10-31T06:45:03;7.80;99.90
8896;DHT22;4484;48.928;10.066;2023-10-31T06:47:30;7.80;99.90
8896;DHT22;4484;48.928;10.066;2023-10-31T06:49:57;7.80;99.90
8896;DHT22;4484;48.928;10.066;2023-10-31T06:52:24;7.80;99.90
8896;DHT22;4484;48.928;10.066;2023-10-31T06:54:50;7.80;99.90
8896;DHT22;4484;48.928;10.066;2023-10-31T06:57:17;7.90;99.90
8896;DHT22;4484;48.928;10.066;2023-10-31T06:59:44;7.90;99.90
8896;DHT22;4484;48.928;10.066;2023-10-31T07:02:11;7.90;99.90
8896;DHT22;4484;48.928;10.066;2023-10-31T07:04:38;7.90;99.90
8896;DHT22;4484;48.928;10.066;2023-10-31T07:07:05;8.00;99.90
8896;DHT22;4484;48.928;10.066;2023-10-31T07:09:32;8.00;99.90
8896;DHT22;4484;48.928;10.066;2023-10-31T07:11:58;8.00;99.90
8896;DHT22;4484;48.928;10.066;2023-10-31T07:14:25;8.00;99.90
8896;DHT22;4484;48.928;10.066;2023-10-31T07:16:52;8.00;99.90
8896;DHT22;4484;48.928;10.066;2023-10-31T07:19:19;8.00;99.90
8896;DHT22;4484;48.928;10.066;2023-10-31T07:21:46;8.10;99.90
8896;DHT22;4484;48.928;10.066;2023-10-31T07:24:12;8.10;99.90
8896;DHT22;4484;48.928;10.066;2023-10-31T07:26:39;8.10;99.90
8896;DHT22;4484;48.928;10.066;2023-10-31T07:29:06;8.20;99.90
8896;DHT22;4484;48.928;10.066;2023-10-31T07:31:33;8.10;99.90
8896;DHT22;4484;48.928;10.066;2023-10-31T07:34:00;8.20;99.90
8896;DHT22;4484;48.928;10.066;2023-10-31T07:36:27;8.20;99.90
8896;DHT22;4484;48.928;10.066;2023-10-31T07:38:53;8.20;99.90
8896;DHT22;4484;48.928;10.066;2023-10-31T07:41:20;8.30;99.90
8896;DHT22;4484;48.928;10.066;2023-10-31T07:43:47;8.30;99.90
8896;DHT22;4484;48.928;10.066;2023-10-31T07:46:14;8.30;99.90
8896;DHT22;4484;48.928;10.066;2023-10-31T07:48:41;8.30;99.90
8896;DHT22;4484;48.928;10.066;2023-10-31T07:51:08;8.30;99.90
8896;DHT22;4484;48.928;10.066;2023-10-31T07:53:35;8.40;99.90
8896;DHT22;4484;48.928;10.066;2023-10-31T07:56:02;8.30;99.90
8896;DHT22;4484;48.928;10.066;2023-10-31T07:58:29;8.40;99.90
8896;DHT22;4484;48.928;10.066;2023-10-31T08:00:56;8.40;99.90
8896;DHT22;4484;48.928;10.066;2023-10-31T08:03:23;8.40;99.90
8896;DHT22;4484;48.928;10.066;2023-10-31T08:05:49;8.40;99.90
8896;DHT22;4484;48.928;10.066;2023-10-31T08:08:16;8.40;99.90
8896;DHT22;4484;48.928;10.066;2023-10-31T08:10:44;8.50;99.90
8896;DHT22;4484;48.928;10.066;2023-10-31T08:13:11;8.50;99.90
8896;DHT22;4484;48.928;10.066;2023-10-31T08:15:38;8.50;99.90
8896;DHT22;4484;48.928;10.066;2023-10-31T08:18:04;8.50;99.90
8896;DHT22;4484;48.928;10.066;2023-10-31T08:20:31;8.50;99.90
8896;DHT22;4484;48.928;10.066;2023-10-31T08:23:00;8.50;99.90
8896;DHT22;4484;48.928;10.066;2023-10-31T08:25:27;8.60;99.90
8896;DHT22;4484;48.928;10.066;2023-10-31T08:27:54;8.60;99.90
8896;DHT22;4484;48.928;10.066;2023-10-31T08:30:21;8.60;99.90
8896;DHT22;4484;48.928;10.066;2023-10-31T08:32:48;8.70;99.90
8896;DHT22;4484;48.928;10.066;2023-10-31T08:35:15;8.70;99.90
8896;DHT22;4484;48.928;10.066;2023-10-31T08:37:42;8.70;99.90
8896;DHT22;4484;48.928;10.066;2023-10-31T08:40:09;8.70;99.90
8896;DHT22;4484;48.928;10.066;2023-10-31T08:42:36;8.70;99.90
8896;DHT22;4484;48.928;10.066;2023-10-31T08:45:03;8.70;99.90
8896;DHT22;4484;48.928;10.066;2023-10-31T08:47:30;8.80;99.90
8896;DHT22;4484;48.928;10.066;2023-10-31T08:49:57;8.90;99.90
8896;DHT22;4484;48.928;10.066;2023-10-31T08:52:24;9.00;99.90
8896;DHT22;4484;48.928;10.066;2023-10-31T08:54:51;9.10;99.90
8896;DHT22;4484;48.928;10.066;2023-10-31T08:57:17;9.20;99.90
8896;DHT22;4484;48.928;10.066;2023-10-31T08:59:44;9.40;99.90
8896;DHT22;4484;48.928;10.066;2023-10-31T09:02:11;9.50;99.90
8896;DHT22;4484;48.928;10.066;2023-10-31T09:04:38;9.60;99.90
8896;DHT22;4484;48.928;10.066;2023-10-31T09:07:05;9.70;99.90
8896;DHT22;4484;48.928;10.066;2023-10-31T09:09:32;9.70;99.90
8896;DHT22;4484;48.928;10.066;2023-10-31T09:11:58;9.80;99.90
8896;DHT22;4484;48.928;10.066;2023-10-31T09:14:25;9.90;99.90
8896;DHT22;4484;48.928;10.066;2023-10-31T09:16:52;10.00;99.90
8896;DHT22;4484;48.928;10.066;2023-10-31T09:19:19;10.00;99.90
8896;DHT22;4484;48.928;10.066;2023-10-31T09:21:46;10.00;99.90
8896;DHT22;4484;48.928;10.066;2023-10-31T09:24:13;10.00;99.90
8896;DHT22;4484;48.928;10.066;2023-10-31T09:26:43;10.10;99.90
8896;DHT22;4484;48.928;10.066;2023-10-31T09:29:10;10.20;99.90
8896;DHT22;4484;48.928;10.066;2023-10-31T09:31:51;10.20;99.90
8896;DHT22;4484;48.928;10.066;2023-10-31T09:34:18;10.30;99.90
8896;DHT22;4484;48.928;10.066;2023-10-31T09:36:45;10.30;99.90
8896;DHT22;4484;48.928;10.066;2023-10-31T09:39:12;10.40;99.90
8896;DHT22;4484;48.928;10.066;2023-10-31T09:41:39;10.40;99.90
8896;DHT22;4484;48.928;10.066;2023-10-31T09:44:06;10.40;99.90
8896;DHT22;4484;48.928;10.066;2023-10-31T09:46:33;10.40;99.90
8896;DHT22;4484;48.928;10.066;2023-10-31T09:49:02;10.40;99.90
8896;DHT22;4484;48.928;10.066;2023-10-31T09:51:29;10.40;99.90
8896;DHT22;4484;48.928;10.066;2023-10-31T09:53:57;10.50;99.90
8896;DHT22;4484;48.928;10.066;2023-10-31T09:56:26;10.50;99.90
8896;DHT22;4484;48.928;10.066;2023-10-31T09:58:54;10.60;99.90
8896;DHT22;4484;48.928;10.066;2023-10-31T10:01:20;10.70;99.90
8896;DHT22;4484;48.928;10.066;2023-10-31T10:03:47;10.80;99.90
8896;DHT22;4484;48.928;10.066;2023-10-31T10:06:16;10.80;99.90
8896;DHT22;4484;48.928;10.066;2023-10-31T10:08:43;10.80;99.90
8896;DHT22;4484;48.928;10.066;2023-10-31T10:11:11;10.90;99.90
8896;DHT22;4484;48.928;10.066;2023-10-31T10:13:38;10.80;99.90
8896;DHT22;4484;48.928;10.066;2023-10-31T10:16:05;10.90;99.90
8896;DHT22;4484;48.928;10.066;2023-10-31T10:18:33;10.80;99.90
8896;DHT22;4484;48.928;10.066;2023-10-31T10:21:03;10.80;99.90
8896;DHT22;4484;48.928;10.066;2023-10-31T10:23:30;10.80;99.90
8896;DHT22;4484;48.928;10.066;2023-10-31T10:26:02;10.80;99.90
8896;DHT22;4484;48.928;10.066;2023-10-31T10:28:29;10.80;99.90
8896;DHT22;4484;48.928;10.066;2023-10-31T10:30:56;10.90;99.90
8896;DHT22;4484;48.928;10.066;2023-10-31T10:33:23;10.90;99.90
8896;DHT22;4484;48.928;10.066;2023-10-31T10:35:50;11.00;99.90
8896;DHT22;4484;48.928;10.066;2023-10-31T10:38:19;11.00;99.90
8896;DHT22;4484;48.928;10.066;2023-10-31T10:40:49;11.00;99.90
8896;DHT22;4484;48.928;10.066;2023-10-31T10:43:23;11.00;99.90
8896;DHT22;4484;48.928;10.066;2023-10-31T10:45:55;11.10;99.90
8896;DHT22;4484;48.928;10.066;2023-10-31T10:48:24;11.10;99.90
8896;DHT22;4484;48.928;10.066;2023-10-31T10:51:09;11.10;99.90
8896;DHT22;4484;48.928;10.066;2023-10-31T10:53:52;11.20;99.90
8896;DHT22;4484;48.928;10.066;2023-10-31T10:56:28;11.20;99.90
8896;DHT22;4484;48.928;10.066;2023-10-31T10:59:20;11.30;99.90
8896;DHT22;4484;48.928;10.066;2023-10-31T11:01:48;11.30;99.90
8896;DHT22;4484;48.928;10.066;2023-10-31T11:04:15;11.20;99.90
8896;DHT22;4484;48.928;10.066;2023-10-31T11:06:44;11.20;99.90
8896;DHT22;4484;48.928;10.066;2023-10-31T11:09:13;11.20;99.90
8896;DHT22;4484;48.928;10.066;2023-10-31T11:11:41;11.10;99.90
8896;DHT22;4484;48.928;10.066;2023-10-31T11:14:08;11.10;99.90
8896;DHT22;4484;48.928;10.066;2023-10-31T11:16:44;11.20;99.90
8896;DHT22;4484;48.928;10.066;2023-10-31T11:19:13;11.50;99.90
8896;DHT22;4484;48.928;10.066;2023-10-31T11:22:06;11.60;99.90
8896;DHT22;4484;48.928;10.066;2023-10-31T11:24:36;11.70;99.90
8896;DHT22;4484;48.928;10.066;2023-10-31T11:27:06;11.80;99.90
8896;DHT22;4484;48.928;10.066;2023-10-31T11:29:35;11.80;99.90
8896;DHT22;4484;48.928;10.066;2023-10-31T11:32:03;11.80;99.90
8896;DHT22;4484;48.928;10.066;2023-10-31T11:34:30;11.90;99.90
8896;DHT22;4484;48.928;10.066;2023-10-31T11:37:25;11.90;99.90
8896;DHT22;4484;48.928;10.066;2023-10-31T11:42:46;12.00;99.90
8896;DHT22;4484;48.928;10.066;2023-10-31T11:45:25;12.10;99.90
8896;DHT22;4484;48.928;10.066;2023-10-31T11:47:52;12.20;99.90
8896;DHT22;4484;48.928;10.066;2023-10-31T11:50:18;12.20;99.90
8896;DHT22;4484;48.928;10.066;2023-10-31T11:53:01;12.30;99.90
8896;DHT22;4484;48.928;10.066;2023-10-31T11:55:29;12.40;99.90
8896;DHT22;4484;48.928;10.066;2023-10-31T11:57:56;12.30;99.90
8896;DHT22;4484;48.928;10.066;2023-10-31T12:00:24;12.30;99.90
8896;DHT22;4484;48.928;10.066;2023-10-31T12:03:01;12.20;99.90
8896;DHT22;4484;48.928;10.066;2023-10-31T12:05:29;12.20;99.90
8896;DHT22;4484;48.928;10.066;2023-10-31T12:07:56;12.20;99.90
8896;DHT22;4484;48.928;10.066;2023-10-31T12:10:25;12.20;99.90
8896;DHT22;4484;48.928;10.066;2023-10-31T12:12:53;12.20;99.90
8896;DHT22;4484;48.928;10.066;2023-10-31T12:15:20;12.30;99.90
8896;DHT22;4484;48.928;10.066;2023-10-31T12:17:48;12.50;99.90
8896;DHT22;4484;48.928;10.066;2023-10-31T12:20:15;12.60;99.90
8896;DHT22;4484;48.928;10.066;2023-10-31T12:22:45;12.70;99.90
8896;DHT22;4484;48.928;10.066;2023-10-31T12:25:12;12.80;99.90
8896;DHT22;4484;48.928;10.066;2023-10-31T12:27:46;12.70;99.90
8896;DHT22;4484;48.928;10.066;2023-10-31T12:30:14;12.70;99.90
8896;DHT22;4484;48.928;10.066;2023-10-31T12:32:42;12.50;99.90
8896;DHT22;4484;48.928;10.066;2023-10-31T12:35:14;12.40;99.90
8896;DHT22;4484;48.928;10.066;2023-10-31T12:37:47;12.30;99.90
8896;DHT22;4484;48.928;10.066;2023-10-31T12:40:17;12.20;99.90
8896;DHT22;4484;48.928;10.066;2023-10-31T12:42:45;12.00;99.90
8896;DHT22;4484;48.928;10.066;2023-10-31T12:45:12;12.00;99.90
8896;DHT22;4484;48.928;10.066;2023-10-31T12:47:39;12.00;99.90
8896;DHT22;4484;48.928;10.066;2023-10-31T12:50:07;12.10;99.90
8896;DHT22;4484;48.928;10.066;2023-10-31T12:52:53;12.00;99.90
8896;DHT22;4484;48.928;10.066;2023-10-31T12:55:22;12.10;99.90
8896;DHT22;4484;48.928;10.066;2023-10-31T12:57:50;12.20;99.90
8896;DHT22;4484;48.928;10.066;2023-10-31T13:00:19;12.20;99.90
8896;DHT22;4484;48.928;10.066;2023-10-31T13:02:52;12.20;99.90
8896;DHT22;4484;48.928;10.066;2023-10-31T13:05:29;12.30;99.90
8896;DHT22;4484;48.928;10.066;2023-10-31T13:07:57;12.30;99.90
8896;DHT22;4484;48.928;10.066;2023-10-31T13:10:25;12.30;99.90
8896;DHT22;4484;48.928;10.066;2023-10-31T13:12:53;12.30;99.90
8896;DHT22;4484;48.928;10.066;2023-10-31T13:15:21;12.20;99.90
8896;DHT22;4484;48.928;10.066;2023-10-31T13:17:52;12.00;99.90
8896;DHT22;4484;48.928;10.066;2023-10-31T13:20:20;11.90;99.90
8896;DHT22;4484;48.928;10.066;2023-10-31T13:22:47;11.80;99.90
8896;DHT22;4484;48.928;10.066;2023-10-31T13:25:15;11.70;99.90
8896;DHT22;4484;48.928;10.066;2023-10-31T13:27:44;11.60;99.90
8896;DHT22;4484;48.928;10.066;2023-10-31T13:30:13;11.60;99.90
8896;DHT22;4484;48.928;10.066;2023-10-31T13:32:40;11.40;99.90
8896;DHT22;4484;48.928;10.066;2023-10-31T13:35:08;11.30;99.90
8896;DHT22;4484;48.928;10.066;2023-10-31T13:37:39;11.30;99.90
8896;DHT22;4484;48.928;10.066;2023-10-31T13:40:06;11.30;99.90
8896;DHT22;4484;48.928;10.066;2023-10-31T13:42:36;11.30;99.90
8896;DHT22;4484;48.928;10.066;2023-10-31T13:45:04;11.40;99.90
8896;DHT22;4484;48.928;10.066;2023-10-31T13:47:33;11.40;99.90
8896;DHT22;4484;48.928;10.066;2023-10-31T13:50:00;11.40;99.90
8896;DHT22;4484;48.928;10.066;2023-10-31T13:52:27;11.40;99.90
8896;DHT22;4484;48.928;10.066;2023-10-31T13:54:54;11.40;99.90
8896;DHT22;4484;48.928;10.066;2023-10-31T13:57:21;11.40;99.90
8896;DHT22;4484;48.928;10.066;2023-10-31T13:59:50;11.40;99.90
8896;DHT22;4484;48.928;10.066;2023-10-31T14:02:17;11.40;99.90
8896;DHT22;4484;48.928;10.066;2023-10-31T14:04:45;11.40;99.90
8896;DHT22;4484;48.928;10.066;2023-10-31T14:07:20;11.40;99.90
8896;DHT22;4484;48.928;10.066;2023-10-31T14:09:48;11.40;99.90
8896;DHT22;4484;48.928;10.066;2023-10-31T14:12:15;11.30;99.90
8896;DHT22;4484;48.928;10.066;2023-10-31T14:14:42;11.30;99.90
8896;DHT22;4484;48.928;10.066;2023-10-31T14:17:09;11.30;99.90
8896;DHT22;4484;48.928;10.066;2023-10-31T14:19:36;11.30;99.90
8896;DHT22;4484;48.928;10.066;2023-10-31T14:22:03;11.20;99.90
8896;DHT22;4484;48.928;10.066;2023-10-31T14:24:29;11.20;99.90
8896;DHT22;4484;48.928;10.066;2023-10-31T14:26:56;11.20;99.90
8896;DHT22;4484;48.928;10.066;2023-10-31T14:29:25;11.10;99.90
8896;DHT22;4484;48.928;10.066;2023-10-31T14:31:52;11.00;99.90
8896;DHT22;4484;48.928;10.066;2023-10-31T14:34:21;10.90;99.90
8896;DHT22;4484;48.928;10.066;2023-10-31T14:36:48;10.90;99.90
8896;DHT22;4484;48.928;10.066;2023-10-31T14:39:15;10.80;99.90
8896;DHT22;4484;48.928;10.066;2023-10-31T14:41:42;10.80;99.90
8896;DHT22;4484;48.928;10.066;2023-10-31T14:44:09;10.80;99.90
8896;DHT22;4484;48.928;10.066;2023-10-31T14:46:36;10.70;99.90
8896;DHT22;4484;48.928;10.066;2023-10-31T14:49:03;10.70;99.90
8896;DHT22;4484;48.928;10.066;2023-10-31T14:51:30;10.60;99.90
8896;DHT22;4484;48.928;10.066;2023-10-31T14:53:57;10.60;99.90
8896;DHT22;4484;48.928;10.066;2023-10-31T14:56:25;10.60;99.90
8896;DHT22;4484;48.928;10.066;2023-10-31T14:58:53;10.60;99.90
8896;DHT22;4484;48.928;10.066;2023-10-31T15:01:20;10.60;99.90
8896;DHT22;4484;48.928;10.066;2023-10-31T15:03:47;10.60;99.90
8896;DHT22;4484;48.928;10.066;2023-10-31T15:06:14;10.70;99.90
8896;DHT22;4484;48.928;10.066;2023-10-31T15:08:42;10.70;99.90
8896;DHT22;4484;48.928;10.066;2023-10-31T15:11:09;10.60;99.90
8896;DHT22;4484;48.928;10.066;2023-10-31T15:13:36;10.50;99.90
8896;DHT22;4484;48.928;10.066;2023-10-31T15:16:03;10.50;99.90
8896;DHT22;4484;48.928;10.066;2023-10-31T15:18:30;10.50;99.90
8896;DHT22;4484;48.928;10.066;2023-10-31T15:20:57;10.50;99.90
8896;DHT22;4484;48.928;10.066;2023-10-31T15:23:24;10.50;99.90
8896;DHT22;4484;48.928;10.066;2023-10-31T15:25:53;10.50;99.90
8896;DHT22;4484;48.928;10.066;2023-10-31T15:28:20;10.40;99.90
8896;DHT22;4484;48.928;10.066;2023-10-31T15:30:47;10.40;99.90
8896;DHT22;4484;48.928;10.066;2023-10-31T15:33:14;10.30;99.90
8896;DHT22;4484;48.928;10.066;2023-10-31T15:35:41;10.30;99.90
8896;DHT22;4484;48.928;10.066;2023-10-31T15:38:08;10.30;99.90
8896;DHT22;4484;48.928;10.066;2023-10-31T15:40:35;10.30;99.90
8896;DHT22;4484;48.928;10.066;2023-10-31T15:43:01;10.20;99.90
8896;DHT22;4484;48.928;10.066;2023-10-31T15:45:28;10.20;99.90
8896;DHT22;4484;48.928;10.066;2023-10-31T15:47:55;10.10;99.90
8896;DHT22;4484;48.928;10.066;2023-10-31T15:50:22;10.10;99.90
8896;DHT22;4484;48.928;10.066;2023-10-31T15:52:49;10.00;99.90
8896;DHT22;4484;48.928;10.066;2023-10-31T15:55:16;10.00;99.90
8896;DHT22;4484;48.928;10.066;2023-10-31T15:57:43;9.90;99.90
8896;DHT22;4484;48.928;10.066;2023-10-31T16:00:10;9.90;99.90
8896;DHT22;4484;48.928;10.066;2023-10-31T16:02:39;9.80;99.90